EHBK/MST METAR and TAF weather

Enter ICAO airport designator
Station Type Date Time Source
EHBK METAR 2020/06/05 09:25 UTC NOAA

EHBK 050925Z AUTO 22015KT 180V260 9999 -RA SCT016 BKN020 OVC024 12/10 Q0994 TEMPO 7000


Station Type Date Time Source
EHBK Decoded METAR 2020/06/05 09:25 UTC NOAA

Maastricht Airport Zuid Limburg, Netherlands (EHBK) 50-55N 005-47E 116M
Jun 05, 2020 - 05:25 AM EDT / 2020.06.05 0925 UTC
Wind: from the SW (220 degrees) at 17 MPH (15 KT) (direction variable):0
Visibility: greater than 7 mile(s):0
Sky conditions: overcast
Weather: light rain
Temperature: 53 F (12 C)
Dew Point: 50 F (10 C)
Relative Humidity: 87%
Pressure (altimeter): 29.35 in. Hg (0994 hPa)
ob: EHBK 050925Z AUTO 22015KT 180V260 9999 -RA SCT016 BKN020 OVC024 12/10 Q0994 TEMPO 7000
cycle: 9

Station Type Date Time Source
EHBK TAF 2020/06/05 06:27 UTC NOAA

TAF EHBK 050450Z 0506/0612 21010KT 9999 BKN030 PROB30
TEMPO 0506/0510 6000 SHRA FEW018CB
TEMPO 0510/0518 4000 SHRA RA SCT015CB BKN018 PROB40
TEMPO 0510/0518 23018G30KT 2500 TSRA BKN012 SCT015CB
BECMG 0512/0515 27012KT
BECMG 0517/0520 22010KT PROB30
TEMPO 0517/0609 24012G22KT 6000 SHRA FEW018CB
BECMG 0606/0609 22016G26KT

Example: see airport list